Time;durP1;ratioP1;P1;durP2;ratioP2;P2;SDS_P1;SDS_P2;PMS_P1;PMS_P2;Temp;Humidity;BMP_temperature;BMP_pressure;BME280_temperature;BME280_humidity;BME280_pressure;Samples;Min_cycle;Max_cycle;Signal;HPM_P1;HPM_P2
2022/11/23 00:00:35;;;;;;;6.63;2.40;;;5.60;99.90;;;4.01;100.00;99126.19;4821515;29;20045;-77
2022/11/23 00:03:01;;;;;;;9.13;2.75;;;5.70;99.90;;;4.03;100.00;99112.50;4821319;29;20497;-76
2022/11/23 00:05:29;;;;;;;8.65;2.30;;;5.70;99.90;;;4.08;100.00;99123.50;4821306;29;20030;-76
2022/11/23 00:07:55;;;;;;;10.13;3.28;;;5.70;99.90;;;4.02;100.00;99124.34;4820795;29;20040;-76
2022/11/23 00:10:21;;;;;;;4.93;2.15;;;5.70;99.90;;;3.96;100.00;99122.47;4820449;29;20042;-75
2022/11/23 00:12:47;;;;;;;8.18;2.47;;;5.60;99.90;;;3.89;100.00;99130.59;4821266;29;20761;-75
2022/11/23 00:15:15;;;;;;;6.18;2.20;;;5.60;99.90;;;3.83;100.00;99126.03;4820762;29;20045;-76
2022/11/23 00:17:40;;;;;;;6.72;2.45;;;5.50;99.90;;;3.69;100.00;99126.06;4824403;29;20478;-76
2022/11/23 00:20:07;;;;;;;5.07;2.83;;;5.40;99.90;;;3.58;100.00;99121.28;4820920;29;20038;-76
2022/11/23 00:22:34;;;;;;;10.48;2.90;;;5.30;99.90;;;3.47;100.00;99125.44;4821186;29;20054;-76
2022/11/23 00:25:00;;;;;;;8.30;2.80;;;5.20;99.90;;;3.35;100.00;99127.94;4820817;29;20049;-76
2022/11/23 00:27:26;;;;;;;6.20;2.53;;;5.10;99.90;;;3.28;100.00;99127.94;4820800;29;20042;-76
2022/11/23 00:29:51;;;;;;;8.32;2.80;;;5.00;99.90;;;3.25;100.00;99135.59;4834513;29;20042;-76
2022/11/23 00:32:17;;;;;;;6.00;2.63;;;4.90;99.90;;;3.20;100.00;99136.22;4820451;29;20034;-76
2022/11/23 00:34:43;;;;;;;7.72;2.85;;;4.90;99.90;;;3.22;100.00;99131.44;4821126;29;20034;-76
2022/11/23 00:37:09;;;;;;;7.40;2.40;;;4.90;99.90;;;3.44;100.00;99150.09;4820885;29;20046;-76
2022/11/23 00:39:34;;;;;;;8.40;2.72;;;5.00;99.90;;;3.55;100.00;99136.03;4831565;29;20181;-75
2022/11/23 00:42:00;;;;;;;9.00;3.00;;;5.10;99.90;;;3.55;100.00;99130.63;4820754;29;20049;-76
2022/11/23 00:44:26;;;;;;;5.55;2.28;;;5.20;99.90;;;3.57;100.00;99123.16;4820432;29;20045;-76
2022/11/23 00:46:51;;;;;;;7.63;2.28;;;5.20;99.90;;;3.58;100.00;99129.38;4820776;29;20442;-76
2022/11/23 00:49:17;;;;;;;8.35;2.25;;;5.20;99.90;;;3.55;100.00;99127.94;4830674;29;20041;-76
2022/11/23 00:51:43;;;;;;;6.43;2.30;;;5.20;99.90;;;3.55;100.00;99129.78;4825295;29;20034;-76
2022/11/23 00:54:09;;;;;;;7.40;2.30;;;5.20;99.90;;;3.52;100.00;99124.81;4825962;29;20325;-76
2022/11/23 00:56:35;;;;;;;7.90;2.13;;;5.20;99.90;;;3.48;100.00;99123.56;4829112;29;20026;-76
2022/11/23 00:59:02;;;;;;;10.38;2.80;;;5.10;99.90;;;3.45;100.00;99130.22;4824275;29;20057;-76
2022/11/23 01:01:35;;;;;;;6.10;2.33;;;5.10;99.90;;;3.42;100.00;99126.06;4820021;29;20038;-76
2022/11/23 01:04:05;;;;;;;8.32;3.10;;;5.10;99.90;;;3.51;100.00;99121.31;4818309;29;20054;-75
2022/11/23 01:06:39;;;;;;;7.88;2.47;;;5.10;99.90;;;3.53;100.00;99129.16;4819799;29;20038;-76
2022/11/23 01:09:14;;;;;;;5.00;2.45;;;5.10;99.90;;;3.40;100.00;99121.91;4820053;29;20090;-75
2022/11/23 01:11:40;;;;;;;6.07;2.58;;;5.10;99.90;;;3.31;100.00;99116.72;4833777;29;20050;-76
2022/11/23 01:14:06;;;;;;;10.30;3.10;;;5.00;99.90;;;3.22;100.00;99120.66;4829633;29;20186;-76
2022/11/23 01:16:36;;;;;;;6.65;2.90;;;4.90;99.90;;;3.15;100.00;99128.75;4833771;29;20038;-76
2022/11/23 01:19:14;;;;;;;11.52;3.17;;;4.80;99.90;;;3.07;100.00;99120.88;4818368;29;20046;-76
2022/11/23 01:21:40;;;;;;;;;;;4.70;99.90;;;3.05;100.00;99135.56;4820721;29;20034;-76
2022/11/23 01:24:20;;;;;;;5.57;2.75;;;4.70;99.90;;;3.01;100.00;99127.91;4819918;29;19965;-76
2022/11/23 01:26:51;;;;;;;6.75;2.65;;;4.70;99.90;;;3.01;100.00;99132.44;4820093;29;20060;-76
2022/11/23 01:29:19;;;;;;;7.22;2.75;;;4.70;99.90;;;3.10;100.00;99135.78;4819746;29;20508;-76
2022/11/23 01:31:45;;;;;;;5.75;2.65;;;4.70;99.90;;;3.13;100.00;99127.28;4819830;29;20056;-76
2022/11/23 01:34:15;;;;;;;5.72;2.80;;;4.80;99.90;;;3.18;100.00;99135.56;4819827;29;20031;-75
2022/11/23 01:36:41;;;;;;;6.78;2.80;;;4.80;99.90;;;3.22;100.00;99131.44;4819842;29;20073;-76
2022/11/23 01:39:09;;;;;;;5.72;2.42;;;4.80;99.90;;;3.19;100.00;99134.56;4819632;29;20030;-76
2022/11/23 01:41:40;;;;;;;6.07;2.47;;;4.90;99.90;;;3.12;100.00;99115.69;4819747;29;20626;-76
2022/11/23 01:44:31;;;;;;;6.53;2.47;;;4.90;99.90;;;3.29;100.00;99137.66;4819855;29;20042;-76
2022/11/23 01:47:06;;;;;;;6.03;2.33;;;4.90;99.90;;;3.26;100.00;99140.78;4819787;29;20058;-76
2022/11/23 01:49:52;;;;;;;8.13;2.83;;;4.90;99.90;;;3.24;100.00;99136.63;4821672;29;20046;-76
2022/11/23 01:52:24;;;;;;;6.65;2.38;;;4.90;99.90;;;3.26;100.00;99135.38;4819421;29;20498;-76
2022/11/23 01:54:54;;;;;;;5.57;2.42;;;4.90;99.90;;;3.31;100.00;99137.44;4833548;29;20065;-76
2022/11/23 01:57:27;;;;;;;9.52;2.85;;;4.90;99.90;;;3.23;100.00;99141.19;4819072;29;20113;-76
2022/11/23 01:59:54;;;;;;;5.97;2.50;;;4.90;99.90;;;3.05;100.00;99135.56;4819361;29;20030;-76
2022/11/23 02:02:21;;;;;;;6.43;2.90;;;4.80;99.90;;;2.87;100.00;99145.91;4818246;29;20406;-76
2022/11/23 02:04:53;;;;;;;5.28;2.42;;;4.60;99.90;;;2.77;100.00;99136.53;4833369;29;20073;-76
2022/11/23 02:07:23;;;;;;;7.30;3.20;;;4.50;99.90;;;2.85;100.00;99142.56;4818305;29;20031;-75
2022/11/23 02:09:50;;;;;;;6.82;2.78;;;4.50;99.90;;;2.82;100.00;99134.06;4819340;29;20054;-76
2022/11/23 02:12:16;;;;;;;7.43;2.50;;;4.50;99.90;;;2.86;100.00;99133.47;4819245;29;20042;-77
2022/11/23 02:14:43;;;;;;;6.57;2.80;;;4.60;99.90;;;2.93;100.00;99138.88;4824081;29;20163;-76
2022/11/23 02:17:09;;;;;;;6.40;2.33;;;4.60;99.90;;;2.97;100.00;99140.13;4827539;29;20569;-76
2022/11/23 02:19:56;;;;;;;5.70;2.33;;;4.60;99.90;;;2.95;100.00;99144.03;4836796;29;20035;-76
2022/11/23 02:22:56;;;;;;;5.25;2.22;;;4.60;99.90;;;2.83;100.00;99139.25;4822888;29;20038;-76
2022/11/23 02:25:42;;;;;;;5.10;2.50;;;4.50;99.90;;;2.75;100.00;99149.38;4822626;29;20046;-74
2022/11/23 02:28:23;;;;;;;6.40;3.08;;;4.50;99.90;;;2.75;100.00;99147.50;4836286;29;20049;-75
2022/11/23 02:30:53;;;;;;;5.82;2.67;;;4.50;99.90;;;2.73;100.00;99145.03;4821011;29;20049;-74
2022/11/23 02:33:24;;;;;;;7.22;2.50;;;4.40;99.90;;;2.87;100.00;99143.19;4821163;29;20034;-75
2022/11/23 02:35:56;;;;;;;6.47;2.50;;;4.50;99.90;;;2.97;100.00;99141.97;4822271;29;20078;-74
2022/11/23 02:38:27;;;;;;;10.73;2.70;;;4.60;99.90;;;3.00;100.00;99142.41;4825800;29;20066;-74
2022/11/23 02:40:55;;;;;;;7.68;2.60;;;4.70;99.90;;;3.06;100.00;99148.84;4821505;29;20038;-75
2022/11/23 02:43:22;;;;;;;8.30;2.60;;;4.70;99.90;;;3.23;100.00;99149.28;4833975;29;20132;-76
2022/11/23 02:45:56;;;;;;;4.75;2.03;;;4.80;99.90;;;3.39;100.00;99153.44;4822481;29;20041;-75
2022/11/23 02:48:24;;;;;;;5.53;2.05;;;5.00;99.90;;;3.51;100.00;99145.56;4830873;29;20203;-75
2022/11/23 02:50:50;;;;;;;6.72;2.42;;;5.10;99.90;;;3.62;100.00;99140.56;4823450;29;20046;-76
2022/11/23 02:53:17;;;;;;;7.13;2.20;;;5.30;99.90;;;3.74;100.00;99138.94;4822127;29;20486;-75
2022/11/23 02:55:43;;;;;;;6.63;2.55;;;5.40;99.90;;;3.75;100.00;99137.88;4820758;29;20113;-75
2022/11/23 02:58:10;;;;;;;7.57;2.28;;;5.40;99.90;;;3.79;100.00;99149.06;4833517;29;20043;-75
2022/11/23 03:00:36;;;;;;;6.43;2.00;;;5.50;99.90;;;3.71;100.00;99144.72;4820576;29;20026;-75
2022/11/23 03:03:03;;;;;;;6.10;2.40;;;5.40;99.90;;;3.58;100.00;99145.53;4832553;29;20069;-75
2022/11/23 03:05:29;;;;;;;6.30;2.40;;;5.30;99.90;;;3.49;100.00;99146.81;4822644;29;20087;-76
2022/11/23 03:07:55;;;;;;;5.80;2.67;;;5.20;99.90;;;3.43;100.00;99143.06;4821928;29;20498;-75
2022/11/23 03:10:21;;;;;;;5.15;2.60;;;5.20;99.90;;;3.45;100.00;99152.59;4822035;29;20046;-76
2022/11/23 03:12:54;;;;;;;8.23;2.90;;;5.10;99.90;;;3.47;100.00;99146.19;4820778;29;20082;-76
2022/11/23 03:15:20;;;;;;;7.93;2.70;;;5.10;99.90;;;3.50;100.00;99148.47;4833434;29;20041;-75
2022/11/23 03:17:46;;;;;;;8.05;3.30;;;5.20;99.90;;;3.56;100.00;99145.78;4835850;29;20121;-75
2022/11/23 03:20:15;;;;;;;6.88;2.33;;;5.20;99.90;;;3.67;100.00;99140.78;4833029;29;20031;-76
2022/11/23 03:22:44;;;;;;;6.20;2.35;;;5.30;99.90;;;3.83;100.00;99136.81;4820222;29;20042;-75
2022/11/23 03:25:11;;;;;;;5.20;1.98;;;5.40;99.90;;;4.00;100.00;99138.03;4828955;29;20038;-75
2022/11/23 03:27:38;;;;;;;6.70;2.38;;;5.60;99.90;;;4.14;100.00;99144.22;4820446;29;20109;-76
2022/11/23 03:30:07;;;;;;;5.68;2.20;;;5.70;99.90;;;4.20;100.00;99139.88;4832062;29;20371;-76
2022/11/23 03:32:35;;;;;;;7.97;3.28;;;5.80;99.90;;;4.32;100.00;99140.84;4832103;29;20035;-75
2022/11/23 03:35:04;;;;;;;10.88;2.20;;;5.90;99.90;;;4.39;100.00;99138.13;4835373;29;20066;-75
2022/11/23 03:37:32;;;;;;;8.35;2.20;;;6.00;99.90;;;4.46;100.00;99138.13;4835403;29;20394;-75
2022/11/23 03:39:58;;;;;;;7.78;2.08;;;6.10;99.90;;;4.55;100.00;99138.72;4820090;29;20038;-76
2022/11/23 03:42:46;;;;;;;4.07;1.48;;;6.20;99.90;;;4.65;100.00;99146.38;4821634;29;20124;-75
2022/11/23 03:45:12;;;;;;;5.78;2.00;;;6.20;99.90;;;4.63;100.00;99143.88;4832706;29;20050;-76
2022/11/23 03:47:39;;;;;;;6.88;1.92;;;6.30;99.90;;;4.58;100.00;99127.47;4820488;29;20482;-76
2022/11/23 03:50:05;;;;;;;4.38;1.67;;;6.30;99.90;;;4.78;100.00;99140.06;4832759;29;20037;-75
2022/11/23 03:52:31;;;;;;;4.75;1.70;;;6.40;99.90;;;4.80;100.00;99137.97;4833373;29;20038;-75
2022/11/23 03:54:57;;;;;;;5.88;1.67;;;6.40;99.90;;;4.85;100.00;99147.06;4820495;29;20509;-75
2022/11/23 03:57:23;;;;;;;5.25;1.58;;;6.50;99.90;;;4.90;100.00;99149.13;4835261;29;20494;-75
2022/11/23 03:59:48;;;;;;;6.32;1.95;;;6.50;99.90;;;4.95;100.00;99152.00;4821013;29;20031;-75
2022/11/23 04:02:14;;;;;;;7.82;1.80;;;6.60;99.90;;;4.90;100.00;99144.53;4821373;29;20070;-75
2022/11/23 04:04:48;;;;;;;6.32;1.95;;;6.50;99.90;;;4.83;100.00;99151.88;4834977;29;20091;-76
2022/11/23 04:07:52;;;;;;;6.38;1.90;;;6.50;99.90;;;4.74;100.00;99140.47;4822527;29;20539;-75
2022/11/23 04:10:19;;;;;;;7.32;1.77;;;6.40;99.90;;;4.67;100.00;99138.88;4839121;29;20038;-74
2022/11/23 04:13:06;;;;;;;8.20;1.92;;;6.30;99.90;;;4.57;100.00;99142.03;4824848;29;20075;-75
2022/11/23 04:15:32;;;;;;;6.70;1.73;;;6.20;99.90;;;4.51;100.00;99145.56;4819479;29;20042;-75
2022/11/23 04:17:59;;;;;;;6.83;1.77;;;6.10;99.90;;;4.45;100.00;99144.56;4831709;29;20031;-74
2022/11/23 04:20:25;;;;;;;8.55;1.83;;;6.10;99.90;;;4.39;100.00;99140.84;4819457;29;20444;-74
2022/11/23 04:22:51;;;;;;;4.75;1.98;;;6.00;99.90;;;4.36;100.00;99148.53;4829615;29;20042;-75
2022/11/23 04:25:17;;;;;;;6.07;1.95;;;6.00;99.90;;;4.26;100.00;99143.59;4834534;29;20137;-75
2022/11/23 04:27:45;;;;;;;4.87;1.80;;;5.90;99.90;;;4.06;100.00;99132.84;4832187;29;20041;-75
2022/11/23 04:30:13;;;;;;;;;;;5.80;99.90;;;4.02;100.00;99154.84;4820123;29;20502;-76
2022/11/23 04:32:38;;;;;;;5.63;2.00;;;5.70;99.90;;;3.89;100.00;99131.41;4834613;29;19971;-74
2022/11/23 04:35:05;;;;;;;6.90;2.10;;;5.60;99.90;;;3.84;100.00;99139.31;4829784;29;20455;-75
2022/11/23 04:37:31;;;;;;;6.15;2.10;;;5.60;99.90;;;3.87;100.00;99146.19;4831688;29;20117;-75
2022/11/23 04:39:57;;;;;;;6.20;2.00;;;5.50;99.90;;;3.77;100.00;99148.44;4820542;29;20130;-75
2022/11/23 04:42:41;;;;;;;5.57;2.00;;;5.40;99.90;;;3.65;100.00;99164.44;4820779;29;20057;-75
2022/11/23 04:45:08;;;;;;;5.90;2.05;;;5.30;99.90;;;3.53;100.00;99156.13;4831512;29;20453;-74
2022/11/23 04:47:35;;;;;;;6.15;2.17;;;5.20;99.90;;;3.48;100.00;99153.22;4832698;29;20030;-75
2022/11/23 04:50:05;;;;;;;5.40;2.03;;;5.10;99.90;;;3.43;100.00;99153.84;4822572;29;20058;-75
2022/11/23 04:52:31;;;;;;;7.07;2.20;;;5.00;99.90;;;3.39;100.00;99155.28;4818674;29;20034;-75
2022/11/23 04:54:57;;;;;;;10.50;2.67;;;5.00;99.90;;;3.25;100.00;99158.00;4833754;29;20667;-75
2022/11/23 04:57:23;;;;;;;4.93;2.13;;;4.90;99.90;;;3.14;100.00;99150.50;4838546;29;20083;-76
2022/11/23 04:59:51;;;;;;;8.18;2.63;;;4.80;99.90;;;3.17;100.00;99152.78;4832768;29;20113;-75
2022/11/23 05:02:17;;;;;;;5.82;2.60;;;4.80;99.90;;;3.17;100.00;99145.53;4820086;29;20134;-75
2022/11/23 05:04:53;;;;;;;8.15;2.30;;;4.80;99.90;;;3.22;100.00;99154.88;4833742;29;20038;-75
2022/11/23 05:07:23;;;;;;;8.07;2.40;;;4.80;99.90;;;3.24;100.00;99153.63;4833927;29;20443;-75
2022/11/23 05:09:54;;;;;;;11.07;2.53;;;4.80;99.90;;;3.20;100.00;99151.53;4830709;29;20038;-75
2022/11/23 05:12:21;;;;;;;6.68;2.17;;;4.80;99.90;;;3.17;100.00;99152.78;4830852;29;20031;-75
2022/11/23 05:14:46;;;;;;;9.13;2.90;;;4.80;99.90;;;3.14;100.00;99158.56;4818632;29;20030;-74
2022/11/23 05:17:18;;;;;;;10.38;2.08;;;4.80;99.90;;;3.09;100.00;99155.66;4818923;29;20504;-75
2022/11/23 05:19:45;;;;;;;5.68;2.35;;;4.70;99.90;;;3.02;100.00;99161.88;4818817;29;20042;-76
2022/11/23 05:22:12;;;;;;;7.13;2.53;;;4.70;99.90;;;2.96;100.00;99164.56;4833564;29;20079;-75
2022/11/23 05:24:39;;;;;;;5.10;2.10;;;4.60;99.90;;;2.82;100.00;99161.00;4833598;29;20063;-74
2022/11/23 05:27:09;;;;;;;10.95;2.45;;;4.50;99.90;;;2.74;100.00;99159.31;4819750;29;20483;-75
2022/11/23 05:29:37;;;;;;;8.10;2.80;;;4.40;99.90;;;2.68;100.00;99163.66;4831300;29;20098;-74
2022/11/23 05:32:06;;;;;;;5.15;2.20;;;4.40;99.90;;;2.53;100.00;99158.44;4822989;29;20087;-75
2022/11/23 05:34:39;;;;;;;6.27;2.40;;;4.20;99.90;;;2.52;100.00;99166.69;4822337;29;20038;-75
2022/11/23 05:37:07;;;;;;;7.97;2.97;;;4.10;99.90;;;2.53;100.00;99173.72;4828709;29;20046;-75
2022/11/23 05:39:37;;;;;;;9.15;2.75;;;4.20;99.90;;;2.56;100.00;99170.63;4837608;29;20113;-75
2022/11/23 05:42:04;;;;;;;10.38;2.83;;;4.20;99.90;;;2.51;100.00;99173.91;4831029;29;20038;-76
2022/11/23 05:44:35;;;;;;;8.35;2.38;;;4.10;99.90;;;2.41;100.00;99165.41;4817949;29;20264;-75
2022/11/23 05:47:02;;;;;;;9.30;2.65;;;4.10;99.90;;;2.30;100.00;99166.78;4825709;29;20038;-75
2022/11/23 05:49:31;;;;;;;10.18;2.95;;;4.00;99.90;;;2.31;100.00;99171.13;4833292;29;20166;-75
2022/11/23 05:51:57;;;;;;;7.00;3.00;;;3.90;99.90;;;2.19;100.00;99170.06;4819933;29;20037;-75
2022/11/23 05:54:24;;;;;;;6.43;2.70;;;3.90;99.90;;;2.08;100.00;99174.94;4832811;29;20394;-76
2022/11/23 05:57:07;;;;;;;8.80;2.70;;;3.80;99.90;;;2.03;100.00;99168.50;4833830;29;20030;-75
2022/11/23 05:59:38;;;;;;;6.82;2.95;;;3.70;99.90;;;2.10;100.00;99169.38;4830614;29;20407;-75
2022/11/23 06:02:05;;;;;;;14.48;3.00;;;3.70;99.90;;;2.30;100.00;99169.47;4832770;29;20042;-75
2022/11/23 06:04:34;;;;;;;9.57;2.85;;;3.90;99.90;;;2.39;100.00;99162.06;4830384;29;20038;-75
2022/11/23 06:07:00;;;;;;;7.88;2.97;;;4.00;99.90;;;2.42;100.00;99167.91;4831786;29;20131;-75
2022/11/23 06:09:30;;;;;;;10.10;2.72;;;4.00;99.90;;;2.36;100.00;99167.84;4818268;29;20490;-75
2022/11/23 06:12:04;;;;;;;7.47;2.70;;;4.00;99.90;;;2.26;100.00;99169.06;4824105;29;20026;-75
2022/11/23 06:14:29;;;;;;;7.05;2.67;;;3.90;99.90;;;2.36;100.00;99168.69;4818967;29;20505;-75
2022/11/23 06:16:56;;;;;;;7.15;2.97;;;4.00;99.90;;;2.46;100.00;99176.38;4817906;29;20094;-75
2022/11/23 06:19:32;;;;;;;8.50;3.38;;;4.00;99.90;;;2.49;100.00;99177.88;4818051;29;20505;-76
2022/11/23 06:21:58;;;;;;;8.13;2.75;;;4.10;99.90;;;2.39;100.00;99162.06;4830281;29;20031;-75
2022/11/23 06:24:25;;;;;;;12.30;2.83;;;4.10;99.90;;;2.48;100.00;99174.31;4820562;29;20034;-75
2022/11/23 06:27:12;;;;;;;7.07;2.75;;;4.10;99.90;;;2.63;100.00;99176.88;4819030;29;20046;-74
2022/11/23 06:29:38;;;;;;;7.53;3.10;;;4.30;99.90;;;2.73;100.00;99181.88;4817850;29;20054;-75
2022/11/23 06:32:04;;;;;;;13.73;3.85;;;4.40;99.90;;;2.72;100.00;99175.69;4819585;29;20052;-75
2022/11/23 06:34:30;;;;;;;8.23;3.10;;;4.40;99.90;;;2.72;100.00;99182.91;4829189;29;20035;-75
2022/11/23 06:36:55;;;;;;;9.88;3.65;;;4.40;99.90;;;2.73;100.00;99177.34;4823870;29;20048;-76
2022/11/23 06:39:24;;;;;;;7.45;3.45;;;4.40;99.90;;;2.80;100.00;99190.00;4825036;29;20041;-76
2022/11/23 06:41:50;;;;;;;11.75;3.80;;;4.50;99.90;;;2.94;100.00;99199.81;4817708;29;20038;-76
2022/11/23 06:44:16;;;;;;;7.97;3.92;;;4.60;99.90;;;3.08;100.00;99197.97;4833099;29;20402;-76
2022/11/23 06:46:42;;;;;;;7.47;3.90;;;4.70;99.90;;;3.16;100.00;99199.63;4817709;29;20037;-76
2022/11/23 06:49:08;;;;;;;7.03;3.00;;;4.80;99.90;;;3.21;100.00;99202.56;4817844;29;20042;-77
2022/11/23 06:51:34;;;;;;;10.32;3.28;;;4.80;99.90;;;3.14;100.00;99196.31;4826688;29;20042;-77
2022/11/23 06:54:00;;;;;;;8.45;2.83;;;4.80;99.90;;;3.12;100.00;99207.31;4817743;29;20039;-79
2022/11/23 06:56:26;;;;;;;8.93;3.28;;;4.80;99.90;;;3.04;100.00;99210.16;4828224;29;20031;-77
2022/11/23 06:58:52;;;;;;;10.38;3.28;;;4.70;99.90;;;3.01;100.00;99208.72;4830965;29;20054;-76
2022/11/23 07:01:22;;;;;;;10.95;4.40;;;4.70;99.90;;;2.94;100.00;99207.88;4827319;29;20034;-77
2022/11/23 07:04:09;;;;;;;12.50;3.67;;;4.60;99.90;;;2.93;100.00;99216.16;4832435;29;20080;-77
2022/11/23 07:06:43;;;;;;;8.73;3.55;;;4.60;99.90;;;2.91;100.00;99219.03;4818734;29;20042;-77
2022/11/23 07:09:19;;;;;;;12.32;4.13;;;4.60;99.90;;;2.86;100.00;99222.34;4834228;29;20048;-77
2022/11/23 07:12:06;;;;;;;8.43;3.83;;;4.50;99.90;;;2.82;100.00;99217.56;4834952;29;20039;-77
2022/11/23 07:14:32;;;;;;;8.20;3.42;;;4.50;99.90;;;2.81;100.00;99218.59;4835466;29;20071;-77
2022/11/23 07:16:59;;;;;;;6.27;3.07;;;4.40;99.90;;;2.70;100.00;99220.84;4836439;29;20060;-77
2022/11/23 07:19:26;;;;;;;9.02;3.55;;;4.40;99.90;;;2.59;100.00;99218.69;4835509;29;20404;-77
2022/11/23 07:21:55;;;;;;;12.80;3.42;;;4.30;99.90;;;2.51;100.00;99230.47;4835665;29;20042;-78
2022/11/23 07:24:21;;;;;;;12.73;4.35;;;4.20;99.90;;;2.52;100.00;99223.22;4824261;29;20041;-77
2022/11/23 07:26:47;;;;;;;13.68;4.40;;;4.20;99.90;;;2.54;100.00;99234.63;4832771;29;20027;-77
2022/11/23 07:29:13;;;;;;;9.80;3.72;;;4.20;99.90;;;2.54;100.00;99235.47;4831811;29;20030;-77
2022/11/23 07:31:39;;;;;;;11.18;3.83;;;4.20;99.90;;;2.52;100.00;99224.06;4820447;29;20133;-77
2022/11/23 07:34:05;;;;;;;12.90;3.85;;;4.20;99.90;;;2.56;100.00;99225.34;4835374;29;20034;-78
2022/11/23 07:36:32;;;;;;;9.25;3.65;;;4.20;99.90;;;2.55;100.00;99237.13;4835916;29;20052;-76
2022/11/23 07:38:57;;;;;;;8.05;3.03;;;4.20;99.90;;;2.56;100.00;99227.19;4821856;29;20383;-76
2022/11/23 07:41:26;;;;;;;10.55;3.72;;;4.20;99.90;;;2.61;100.00;99230.09;4832802;29;20037;-77
2022/11/23 07:44:14;;;;;;;11.57;3.85;;;4.20;99.90;;;2.52;100.00;99217.84;4821272;29;20134;-77
2022/11/23 07:46:40;;;;;;;15.85;4.93;;;4.30;99.90;;;2.72;100.00;99236.78;4821639;29;20095;-77
2022/11/23 07:49:05;;;;;;;13.93;4.13;;;4.40;99.90;;;2.72;100.00;99237.63;4821447;29;20487;-77
2022/11/23 07:51:32;;;;;;;9.38;3.88;;;4.40;99.90;;;2.70;100.00;99245.09;4820956;29;20130;-77
2022/11/23 07:53:59;;;;;;;9.90;3.30;;;4.30;99.90;;;2.72;100.00;99248.41;4821593;29;20037;-77
2022/11/23 07:56:24;;;;;;;8.10;3.47;;;4.40;99.90;;;2.77;100.00;99239.69;4821366;29;20030;-76
2022/11/23 07:58:50;;;;;;;8.70;3.78;;;4.40;99.90;;;2.73;100.00;99233.06;4832883;29;20042;-76
2022/11/23 08:01:17;;;;;;;8.73;3.47;;;4.40;99.90;;;2.82;100.00;99244.50;4830043;29;20034;-77
2022/11/23 08:03:47;;;;;;;8.77;3.15;;;4.40;99.90;;;3.01;100.00;99251.00;4840317;29;20052;-78
2022/11/23 08:06:14;;;;;;;7.75;3.65;;;4.60;99.90;;;3.22;100.00;99252.75;4839998;29;20117;-77
2022/11/23 08:08:41;;;;;;;6.72;3.47;;;4.80;99.90;;;3.42;100.00;99249.25;4834887;29;20038;-75
2022/11/23 08:11:08;;;;;;;6.75;3.00;;;5.00;99.90;;;3.58;100.00;99251.56;4824823;29;20060;-78
2022/11/23 08:13:36;;;;;;;5.82;2.75;;;5.20;99.90;;;3.88;100.00;99255.75;4823246;29;20479;-76
2022/11/23 08:16:02;;;;;;;8.07;2.53;;;5.50;99.90;;;4.07;100.00;99264.03;4821591;29;20042;-76
2022/11/23 08:18:28;;;;;;;5.60;2.75;;;5.60;99.90;;;4.21;100.00;99260.31;4820852;29;20117;-76
2022/11/23 08:20:58;;;;;;;9.35;2.80;;;5.80;99.90;;;4.32;100.00;99262.38;4821985;29;20217;-81
2022/11/23 08:23:24;;;;;;;9.98;3.58;;;5.90;99.90;;;4.56;100.00;99275.44;4822077;29;20442;-80
2022/11/23 08:25:50;;;;;;;10.63;2.80;;;6.10;99.90;;;4.66;100.00;99265.00;4822631;29;20084;-81
2022/11/23 08:28:16;;;;;;;7.35;2.30;;;6.30;99.90;;;4.77;100.00;99273.50;4822132;29;20038;-80
2022/11/23 08:30:42;;;;;;;6.72;2.60;;;6.40;99.90;;;4.83;100.00;99267.25;4822212;29;20500;-79
2022/11/23 08:33:10;;;;;;;6.53;2.40;;;6.40;99.90;;;4.92;100.00;99271.38;4821145;29;20039;-78
2022/11/23 08:35:40;;;;;;;7.03;2.70;;;6.50;99.90;;;5.02;100.00;99271.75;4823506;29;20057;-78
2022/11/23 08:38:08;;;;;;;8.77;2.40;;;;;;;5.17;100.00;99276.91;4824098;29;20040;-80
2022/11/23 08:40:36;;;;;;;5.55;1.80;;;6.70;99.90;;;5.48;100.00;99274.44;4821118;29;20045;-76
2022/11/23 08:43:02;;;;;;;9.13;2.00;;;7.00;99.90;;;5.66;100.00;99279.13;4821296;29;20066;-77
2022/11/23 08:45:28;;;;;;;6.65;1.83;;;7.20;99.90;;;5.76;100.00;99276.78;4821937;29;20034;-76
2022/11/23 08:48:03;;;;;;;6.63;1.70;;;7.30;99.90;;;5.93;100.00;99270.81;4831564;29;20041;-77
2022/11/23 08:50:29;;;;;;;5.75;1.80;;;7.50;99.90;;;6.09;100.00;99269.47;4825556;29;20036;-76
2022/11/23 08:52:59;;;;;;;4.80;1.77;;;7.60;99.90;;;6.17;100.00;99277.31;4837398;29;20034;-76
2022/11/23 08:55:27;;;;;;;5.60;1.70;;;7.80;99.90;;;6.28;100.00;99272.22;4829126;29;20660;-77
2022/11/23 08:57:57;;;;;;;;;;;7.90;99.90;;;6.45;100.00;99272.47;4838903;29;20484;-77
2022/11/23 09:00:24;;;;;;;6.32;1.80;;;8.00;99.90;;;6.48;100.00;99264.75;4834817;29;19920;-78
2022/11/23 09:02:50;;;;;;;7.67;1.90;;;8.20;99.90;;;6.50;100.00;99261.81;4819349;29;20062;-78
2022/11/23 09:05:16;;;;;;;5.97;1.90;;;8.20;99.90;;;6.60;100.00;99272.97;4819816;29;20318;-78
2022/11/23 09:07:42;;;;;;;7.10;1.98;;;8.30;99.90;;;6.66;100.00;99278.53;4820708;29;20033;-78
2022/11/23 09:10:08;;;;;;;5.03;1.70;;;8.30;99.90;;;6.67;100.00;99275.63;4820317;29;20402;-78
2022/11/23 09:12:34;;;;;;;9.30;1.95;;;8.30;99.90;;;6.78;100.00;99274.03;4820532;29;20054;-78
2022/11/23 09:15:00;;;;;;;6.50;1.67;;;8.40;99.90;;;6.77;100.00;99275.09;4822688;29;20394;-76
2022/11/23 09:17:26;;;;;;;4.55;1.70;;;8.40;99.90;;;6.74;100.00;99280.94;4819599;29;20501;-77
2022/11/23 09:19:51;;;;;;;6.20;1.90;;;8.40;99.90;;;6.74;100.00;99279.06;4826208;29;20033;-77
2022/11/23 09:22:17;;;;;;;7.57;1.90;;;8.40;99.90;;;6.78;100.00;99275.91;4819659;29;20502;-77
2022/11/23 09:24:43;;;;;;;6.15;1.80;;;8.40;99.90;;;6.74;100.00;99281.78;4820366;29;20037;-78
2022/11/23 09:27:08;;;;;;;6.90;2.10;;;8.40;99.90;;;6.72;100.00;99283.88;4826090;29;20045;-77
2022/11/23 09:29:34;;;;;;;4.93;1.80;;;8.40;99.90;;;6.78;100.00;99281.31;4826019;29;20090;-77
2022/11/23 09:32:02;;;;;;;7.72;2.00;;;8.40;99.90;;;6.86;100.00;99289.16;4823318;29;20091;-78
2022/11/23 09:34:28;;;;;;;6.78;2.00;;;8.40;99.90;;;6.89;100.00;99288.69;4822720;29;20050;-77
2022/11/23 09:36:56;;;;;;;8.48;1.88;;;8.50;99.90;;;6.91;100.00;99297.47;4826353;29;20058;-77
2022/11/23 09:39:23;;;;;;;5.25;1.60;;;8.50;99.90;;;6.97;100.00;99293.00;4831835;29;20052;-77
2022/11/23 09:42:21;;;;;;;6.80;1.73;;;8.60;99.90;;;7.01;100.00;99297.75;4833180;29;20770;-76
2022/11/23 09:45:19;;;;;;;6.50;1.83;;;8.60;99.90;;;7.09;100.00;99295.78;4835190;29;20038;-75
2022/11/23 09:48:24;;;;;;;6.28;1.80;;;8.70;99.90;;;7.16;100.00;99294.66;4825734;29;20041;-75
2022/11/23 09:51:04;;;;;;;5.25;1.35;;;8.70;99.90;;;7.20;100.00;99300.47;4820432;29;20050;-76
2022/11/23 09:53:48;;;;;;;5.63;1.30;;;8.80;99.90;;;7.25;99.75;99297.03;4822402;29;20027;-76
2022/11/23 09:56:26;;;;;;;4.40;1.60;;;8.80;99.90;;;7.22;100.00;99298.34;4825466;29;20030;-76
2022/11/23 09:59:04;;;;;;;6.18;1.90;;;8.80;99.90;;;7.19;100.00;99298.81;4819062;29;20038;-74
2022/11/23 10:01:30;;;;;;;4.93;1.40;;;8.80;99.90;;;7.18;100.00;99300.69;4822240;29;20038;-74
2022/11/23 10:03:57;;;;;;;5.57;1.55;;;8.80;99.90;;;7.13;100.00;99303.25;4820221;29;20117;-75
2022/11/23 10:06:33;;;;;;;4.88;1.42;;;8.80;99.90;;;7.23;100.00;99296.44;4822135;29;20066;-74
2022/11/23 10:09:23;;;;;;;3.95;1.60;;;8.80;99.90;;;7.27;100.00;99306.63;4828339;29;20056;-75
2022/11/23 10:12:32;;;;;;;6.57;1.60;;;8.90;99.90;;;7.44;100.00;99301.41;4826956;29;20058;-74
2022/11/23 10:15:23;;;;;;;6.63;1.90;;;9.00;99.90;;;7.56;99.40;99303.31;4821964;29;20034;-74
2022/11/23 10:18:37;;;;;;;6.97;1.70;;;9.20;99.90;;;7.96;95.27;99302.75;4829471;29;20034;-74
2022/11/23 10:21:24;;;;;;;4.20;1.40;;;9.50;99.90;;;8.03;93.82;99297.22;4822400;29;20447;-76
2022/11/23 10:24:07;;;;;;;6.60;1.58;;;9.60;99.90;;;8.07;94.28;99306.56;4819094;29;20066;-76
2022/11/23 10:26:41;;;;;;;4.65;1.60;;;9.70;99.90;;;8.01;95.55;99307.50;4818566;29;20068;-76
2022/11/23 10:29:37;;;;;;;7.97;1.95;;;9.70;99.90;;;8.22;95.15;99308.81;4819242;29;20462;-76
2022/11/23 10:32:21;;;;;;;6.05;1.67;;;9.80;99.90;;;8.12;92.47;99301.25;4817746;29;20054;-74
2022/11/23 10:35:05;;;;;;;5.50;1.50;;;9.80;99.90;;;8.19;91.86;99304.69;4821920;29;20030;-76
2022/11/23 10:37:33;;;;;;;7.18;1.67;;;9.80;99.90;;;8.16;90.99;99299.72;4821924;29;20572;-75